Terminal Aerodrome Forecast
Issued by NWS Jacksonville, FL

Home | Current Version | Previous Version | Text Only | Print | Product List | Glossary On
Versions: 1 2 3 4 5 6 7 8 9 10 11 12 13 14 15 16 17 18 19 20 21 22 23 24 25 26
644
FTUS42 KJAX 051720
TAFJAX
TAF
KJAX 051720Z 0518/0618 29018G30KT P6SM FEW050
     FM052300 29012G18KT P6SM SKC
     FM060100 29006KT P6SM SKC=

USA.gov is the U.S. government's official web portal to all federal, state and local government web resources and services.